Time;durP1;ratioP1;P1;durP2;ratioP2;P2;SDS_P1;SDS_P2;PMS_P1;PMS_P2;Temp;Humidity;BMP_temperature;BMP_pressure;BME280_temperature;BME280_humidity;BME280_pressure;Samples;Min_cycle;Max_cycle;Signal;HPM_P1;HPM_P2
2022/08/18 00:01:23;;;;;;;83.53;64.45;;;18.30;99.90;;;;;;5074066;28;20031;-72
2022/08/18 00:03:50;;;;;;;86.32;64.13;;;18.40;99.90;;;;;;5073813;28;20123;-73
2022/08/18 00:06:16;;;;;;;89.97;66.18;;;18.50;99.90;;;;;;5073802;28;20376;-73
2022/08/18 00:08:42;;;;;;;72.40;59.80;;;18.60;99.90;;;;;;5073986;28;20384;-72
2022/08/18 00:11:08;;;;;;;82.13;62.72;;;18.50;99.90;;;;;;5074000;28;20025;-73
2022/08/18 00:13:35;;;;;;;82.07;62.85;;;18.50;99.90;;;;;;5073336;28;20086;-72
2022/08/18 00:16:00;;;;;;;79.53;62.30;;;18.50;99.90;;;;;;5073443;28;20073;-72
2022/08/18 00:18:27;;;;;;;75.07;61.45;;;18.60;99.90;;;;;;5064842;28;20017;-71
2022/08/18 00:20:53;;;;;;;78.18;59.60;;;18.70;99.90;;;;;;5071453;28;20039;-72
2022/08/18 00:23:18;;;;;;;79.35;58.97;;;18.90;99.90;;;;;;5073649;28;20017;-73
2022/08/18 00:25:44;;;;;;;71.18;56.47;;;18.90;99.90;;;;;;5073084;28;20120;-73
2022/08/18 00:28:12;;;;;;;73.00;58.33;;;19.00;99.90;;;;;;5073381;28;20028;-72
2022/08/18 00:30:38;;;;;;;74.38;58.38;;;19.10;99.90;;;;;;5073387;28;20024;-73
2022/08/18 00:33:04;;;;;;;76.43;57.13;;;19.10;99.90;;;;;;5073663;28;20099;-72
2022/08/18 00:35:33;;;;;;;68.32;56.72;;;19.10;99.90;;;;;;5073131;28;20021;-71
2022/08/18 00:38:02;;;;;;;72.63;57.83;;;19.20;99.90;;;;;;5073145;28;20392;-72
2022/08/18 00:40:37;;;;;;;54.78;48.78;;;19.20;99.90;;;;;;5073392;28;20032;-72
2022/08/18 00:43:05;;;;;;;77.20;59.35;;;19.20;99.90;;;;;;5073162;28;20028;-72
2022/08/18 00:45:35;;;;;;;82.32;56.78;;;19.20;99.90;;;;;;5073200;28;20029;-72
2022/08/18 00:48:05;;;;;;;70.55;54.17;;;19.10;99.90;;;;;;5059804;28;20358;-72
2022/08/18 00:50:38;;;;;;;69.70;55.08;;;19.10;99.90;;;;;;5072863;28;20059;-73
2022/08/18 00:53:17;;;;;;;70.40;54.30;;;19.30;99.90;;;;;;5073219;28;20052;-72
2022/08/18 00:55:44;;;;;;;72.75;55.22;;;19.20;99.90;;;;;;5062497;28;20528;-72
2022/08/18 00:58:17;;;;;;;61.75;49.85;;;19.30;99.90;;;;;;5052794;28;20116;-72
2022/08/18 01:00:44;;;;;;;70.38;52.97;;;19.20;99.90;;;;;;5038384;28;20025;-73
2022/08/18 01:03:13;;;;;;;65.85;52.00;;;19.40;99.90;;;;;;5069239;28;20064;-73
2022/08/18 01:05:51;;;;;;;65.38;49.13;;;19.20;99.90;;;;;;5058816;28;20031;-72
2022/08/18 01:08:17;;;;;;;61.58;48.78;;;19.20;99.90;;;;;;5072917;28;20036;-72
2022/08/18 01:10:44;;;;;;;57.25;46.40;;;19.30;99.90;;;;;;5072507;28;20027;-72
2022/08/18 01:13:09;;;;;;;59.63;47.45;;;19.20;99.90;;;;;;5065885;28;20052;-72
2022/08/18 01:15:36;;;;;;;75.18;49.78;;;18.90;99.90;;;;;;5065880;28;20017;-72
2022/08/18 01:23:35;;;;;;;62.47;47.03;;;18.80;99.90;;;;;;5072637;28;20039;-73
2022/08/18 01:26:05;;;;;;;59.22;48.28;;;18.90;99.90;;;;;;5072206;28;20041;-72
2022/08/18 01:28:38;;;;;;;58.78;47.20;;;19.00;99.90;;;;;;5072796;28;20487;-72
2022/08/18 01:31:06;;;;;;;60.15;47.03;;;19.10;99.90;;;;;;5058920;28;20029;-73
2022/08/18 01:33:39;;;;;;;59.38;45.08;;;19.30;99.90;;;;;;5058928;28;20051;-72
2022/08/18 01:36:11;;;;;;;55.15;44.88;;;19.30;99.90;;;;;;5072615;28;20484;-72
2022/08/18 01:38:39;;;;;;;49.08;40.53;;;19.30;99.90;;;;;;5067011;28;20508;-72
2022/08/18 01:41:06;;;;;;;51.13;38.53;;;19.30;99.90;;;;;;5064892;28;20027;-72
2022/08/18 01:43:33;;;;;;;52.17;39.97;;;19.50;99.90;;;;;;5072368;28;20033;-72
2022/08/18 01:46:00;;;;;;;47.28;37.65;;;19.40;99.90;;;;;;5054824;28;20024;-73
2022/08/18 01:48:27;;;;;;;46.22;35.42;;;19.40;99.90;;;;;;5073222;28;20434;-72
2022/08/18 01:50:55;;;;;;;46.20;33.67;;;19.50;99.90;;;;;;5076616;28;20032;-73
2022/08/18 01:53:22;;;;;;;45.25;33.80;;;19.40;99.90;;;;;;5076423;28;20119;-72
2022/08/18 01:55:47;;;;;;;40.22;32.92;;;19.30;99.90;;;;;;5057634;22;20442;-71
2022/08/18 01:58:13;;;;;;;34.35;30.25;;;19.30;99.90;;;;;;5056342;28;20034;-73
2022/08/18 02:00:41;;;;;;;39.40;31.35;;;19.40;99.90;;;;;;5056010;28;20017;-70
2022/08/18 02:03:10;;;;;;;39.45;29.80;;;19.30;99.90;;;;;;5059259;28;20039;-75
2022/08/18 02:05:41;;;;;;;39.25;30.15;;;19.40;99.90;;;;;;5057733;28;20055;-70
2022/08/18 02:08:07;;;;;;;32.28;28.17;;;19.40;99.90;;;;;;5055856;28;20037;-73
2022/08/18 02:10:33;;;;;;;33.03;27.73;;;19.30;99.90;;;;;;5056087;28;20211;-75
2022/08/18 02:12:59;;;;;;;33.10;26.88;;;19.30;99.90;;;;;;5055882;28;20496;-74
2022/08/18 02:15:25;;;;;;;31.48;27.00;;;19.20;99.90;;;;;;5055661;28;20027;-69
2022/08/18 02:17:51;;;;;;;36.17;29.48;;;19.30;99.90;;;;;;5055938;28;20029;-76
2022/08/18 02:20:18;;;;;;;34.78;29.58;;;19.20;99.90;;;;;;5056048;28;20033;-74
2022/08/18 02:22:46;;;;;;;59.97;43.60;;;18.90;99.90;;;;;;5055288;28;20063;-70
2022/08/18 02:25:12;;;;;;;65.70;46.80;;;18.90;99.90;;;;;;5055747;28;20041;-68
2022/08/18 02:27:38;;;;;;;60.25;49.17;;;18.70;99.90;;;;;;5055527;28;20063;-69
2022/08/18 02:30:08;;;;;;;62.60;47.58;;;18.80;99.90;;;;;;5055874;28;20080;-73
2022/08/18 02:32:34;;;;;;;54.95;45.13;;;18.70;99.90;;;;;;5055453;28;20107;-71
2022/08/18 02:35:00;;;;;;;62.75;48.55;;;18.60;99.90;;;;;;5055559;28;20024;-75
2022/08/18 02:37:26;;;;;;;60.75;48.85;;;18.70;99.90;;;;;;5055265;28;20029;-78
2022/08/18 02:39:52;;;;;;;125.03;49.65;;;18.60;99.90;;;;;;5055545;28;20021;-76
2022/08/18 02:42:17;;;;;;;61.53;47.35;;;18.40;99.90;;;;;;5055302;28;20057;-70
2022/08/18 02:44:43;;;;;;;50.17;41.03;;;18.50;99.90;;;;;;5055325;28;20031;-75
2022/08/18 02:47:09;;;;;;;55.83;44.60;;;18.30;99.90;;;;;;5055303;28;20021;-70
2022/08/18 02:49:35;;;;;;;52.40;43.70;;;18.20;99.90;;;;;;5055155;28;20465;-73
2022/08/18 02:52:02;;;;;;;54.88;44.60;;;18.20;99.90;;;;;;5054838;28;20086;-72
2022/08/18 02:54:28;;;;;;;57.85;47.15;;;18.00;99.90;;;;;;5054962;28;20041;-75
2022/08/18 02:56:56;;;;;;;58.00;47.20;;;18.00;99.90;;;;;;5055155;28;20070;-77
2022/08/18 02:59:26;;;;;;;67.15;51.60;;;17.80;99.90;;;;;;5055020;28;20040;-75
2022/08/18 03:01:54;;;;;;;67.25;51.72;;;17.80;99.90;;;;;;5055038;28;20049;-74
2022/08/18 03:04:26;;;;;;;70.93;52.47;;;17.80;99.90;;;;;;5054853;28;20457;-76
2022/08/18 03:06:53;;;;;;;62.83;51.92;;;17.80;99.90;;;;;;5054999;28;20381;-74
2022/08/18 03:09:20;;;;;;;71.35;53.88;;;17.90;99.90;;;;;;5054779;28;20037;-74
2022/08/18 03:11:46;;;;;;;65.68;54.10;;;17.70;99.90;;;;;;5055107;28;20064;-74
2022/08/18 03:14:13;;;;;;;70.40;55.42;;;17.60;99.90;;;;;;5054560;28;20039;-78
2022/08/18 03:16:43;;;;;;;77.38;54.05;;;17.70;99.90;;;;;;5054812;28;20044;-77
2022/08/18 03:19:08;;;;;;;74.40;54.55;;;17.80;99.90;;;;;;5054567;28;20029;-75
2022/08/18 03:21:36;;;;;;;69.57;52.30;;;18.00;99.90;;;;;;5054622;28;20468;-76
2022/08/18 03:24:04;;;;;;;67.53;54.63;;;17.90;99.90;;;;;;5054571;28;20032;-72
2022/08/18 03:26:31;;;;;;;74.13;56.97;;;18.10;99.90;;;;;;5054325;28;20125;-78
2022/08/18 03:28:58;;;;;;;73.28;56.28;;;18.30;99.90;;;;;;5054523;28;20032;-77
2022/08/18 03:31:27;;;;;;;71.78;56.25;;;18.30;99.90;;;;;;5054512;28;20037;-77
2022/08/18 03:33:54;;;;;;;74.03;56.30;;;17.90;99.90;;;;;;5054430;28;20467;-79
2022/08/18 03:36:23;;;;;;;65.97;52.42;;;17.80;99.90;;;;;;5053687;28;20017;-76
2022/08/18 03:38:50;;;;;;;64.82;51.67;;;17.90;99.90;;;;;;5054270;28;20025;-73
2022/08/18 03:41:23;;;;;;;66.75;52.45;;;18.00;99.90;;;;;;5054275;28;20025;-70
2022/08/18 03:43:50;;;;;;;67.53;52.40;;;17.90;99.90;;;;;;5054053;28;20025;-74
2022/08/18 03:46:18;;;;;;;69.93;51.05;;;18.10;99.90;;;;;;5054147;28;20071;-72
2022/08/18 03:48:46;;;;;;;64.97;51.65;;;18.00;99.90;;;;;;5054050;28;20039;-72
2022/08/18 03:51:24;;;;;;;63.85;49.03;;;18.00;99.90;;;;;;5053875;28;20136;-72
2022/08/18 03:53:51;;;;;;;60.05;46.92;;;18.10;99.90;;;;;;5053786;28;20456;-71
2022/08/18 03:56:23;;;;;;;59.25;47.38;;;18.10;99.90;;;;;;5053757;28;20029;-76
2022/08/18 03:58:55;;;;;;;59.70;45.92;;;18.20;99.90;;;;;;5053671;28;20035;-68
2022/08/18 04:01:24;;;;;;;53.17;44.05;;;18.20;99.90;;;;;;5053802;28;20075;-70
2022/08/18 04:03:55;;;;;;;53.42;44.05;;;18.10;99.90;;;;;;5053625;28;20132;-72
2022/08/18 04:06:24;;;;;;;58.28;44.60;;;17.90;99.90;;;;;;5053597;28;20481;-72
2022/08/18 04:08:52;;;;;;;54.22;44.58;;;17.80;99.90;;;;;;5053671;28;20119;-71
2022/08/18 04:11:18;;;;;;;52.85;42.30;;;17.90;99.90;;;;;;5053453;28;20024;-73
2022/08/18 04:13:45;;;;;;;54.60;42.75;;;17.80;99.90;;;;;;5053549;28;20048;-77
2022/08/18 04:16:12;;;;;;;52.72;44.50;;;17.90;99.90;;;;;;5054592;28;20021;-74
2022/08/18 04:18:38;;;;;;;59.35;47.03;;;18.10;99.90;;;;;;5053619;28;20543;-73
2022/08/18 04:21:06;;;;;;;53.80;44.55;;;18.10;99.90;;;;;;5060035;28;20033;-69
2022/08/18 04:23:33;;;;;;;58.97;46.45;;;17.90;99.90;;;;;;5066265;28;20053;-75
2022/08/18 04:26:00;;;;;;;53.63;45.60;;;18.00;99.90;;;;;;5053270;28;20031;-73
2022/08/18 04:28:27;;;;;;;62.25;48.67;;;17.90;99.90;;;;;;5053503;28;20203;-73
2022/08/18 04:30:58;;;;;;;64.82;52.85;;;17.40;99.90;;;;;;5053327;28;20028;-75
2022/08/18 04:33:27;;;;;;;75.75;55.20;;;17.40;99.90;;;;;;5053142;28;20041;-76
2022/08/18 04:35:54;;;;;;;71.47;54.47;;;17.30;99.90;;;;;;5053136;28;20112;-71
2022/08/18 04:38:21;;;;;;;71.57;55.80;;;17.30;99.90;;;;;;5053168;28;20033;-69
2022/08/18 04:40:47;;;;;;;71.90;53.67;;;17.40;99.90;;;;;;5052862;28;20416;-72
2022/08/18 04:43:16;;;;;;;68.00;54.40;;;17.50;99.90;;;;;;5052415;28;20029;-70
2022/08/18 04:45:44;;;;;;;70.28;53.53;;;17.50;99.90;;;;;;5052435;28;20044;-74
2022/08/18 04:48:10;;;;;;;73.00;54.95;;;17.40;99.90;;;;;;5052432;28;20020;-70
2022/08/18 04:50:38;;;;;;;67.80;53.20;;;17.40;99.90;;;;;;5051726;28;20028;-69
2022/08/18 04:55:53;;;;;;;59.97;49.78;;;17.50;99.90;;;;;;5052667;28;20392;-67
2022/08/18 04:58:22;;;;;;;78.63;54.05;;;17.50;99.90;;;;;;5052925;28;20020;-67
2022/08/18 05:01:00;;;;;;;79.63;52.10;;;17.70;99.90;;;;;;5035232;28;20086;-72
2022/08/18 05:03:26;;;;;;;84.47;55.22;;;17.80;99.90;;;;;;5052754;28;20461;-74
2022/08/18 05:05:57;;;;;;;81.00;51.25;;;17.90;99.90;;;;;;5052670;28;20032;-73
2022/08/18 05:08:23;;;;;;;58.72;47.45;;;18.10;99.90;;;;;;5052861;28;20029;-71
2022/08/18 05:10:53;;;;;;;64.80;47.00;;;17.70;99.90;;;;;;5052633;28;20035;-70
2022/08/18 05:13:19;;;;;;;54.60;46.38;;;17.70;99.90;;;;;;5052804;28;20128;-73
2022/08/18 05:16:02;;;;;;;56.08;47.03;;;17.60;99.90;;;;;;5052562;28;20100;-77
2022/08/18 05:18:32;;;;;;;55.70;45.42;;;17.80;99.90;;;;;;5034765;28;20044;-68
2022/08/18 05:21:00;;;;;;;56.22;46.35;;;17.80;99.90;;;;;;5052584;28;20082;-73
2022/08/18 05:23:26;;;;;;;55.85;45.60;;;18.00;99.90;;;;;;5053903;28;20040;-70
2022/08/18 05:26:02;;;;;;;56.45;43.25;;;18.00;99.90;;;;;;5056608;28;20029;-70
2022/08/18 05:28:29;;;;;;;57.80;46.08;;;18.20;99.90;;;;;;5056900;28;20056;-68
2022/08/18 05:30:56;;;;;;;51.88;45.30;;;18.20;99.90;;;;;;5056693;28;20029;-71
2022/08/18 05:33:24;;;;;;;58.90;45.97;;;18.20;99.90;;;;;;5056365;28;20048;-76
2022/08/18 05:36:02;;;;;;;57.30;42.78;;;17.90;99.90;;;;;;5056567;28;20392;-70
2022/08/18 05:38:56;;;;;;;53.20;44.25;;;17.80;99.90;;;;;;5056693;28;20410;-77
2022/08/18 05:41:32;;;;;;;48.50;41.75;;;17.90;99.90;;;;;;5056485;28;20065;-74
2022/08/18 05:43:59;;;;;;;55.83;42.95;;;17.80;99.90;;;;;;5056710;28;20115;-76
2022/08/18 05:46:39;;;;;;;50.30;41.80;;;17.80;99.90;;;;;;5056100;28;20032;-75
2022/08/18 05:49:05;;;;;;;48.13;40.72;;;18.00;99.90;;;;;;5056428;28;20041;-71
2022/08/18 05:51:53;;;;;;;51.00;42.50;;;18.30;99.90;;;;;;5056468;28;20024;-73
2022/08/18 05:57:13;;;;;;;45.97;40.90;;;18.20;99.90;;;;;;5056183;28;20103;-73
2022/08/18 05:59:41;;;;;;;53.80;40.95;;;18.00;99.90;;;;;;5053355;28;20101;-68
2022/08/18 06:02:10;;;;;;;46.70;41.67;;;18.10;99.90;;;;;;5042230;28;20099;-76
2022/08/18 06:04:55;;;;;;;49.88;41.25;;;18.00;99.90;;;;;;5053399;28;20485;-76
2022/08/18 06:07:45;;;;;;;47.70;40.75;;;18.00;99.90;;;;;;5051347;28;20055;-75
2022/08/18 06:10:12;;;;;;;49.88;41.05;;;17.70;99.90;;;;;;5039281;28;20033;-76
2022/08/18 06:12:42;;;;;;;54.25;41.83;;;17.70;99.90;;;;;;5051702;28;20040;-76
2022/08/18 06:15:11;;;;;;;49.33;41.13;;;18.00;99.90;;;;;;5049184;28;20062;-76
2022/08/18 06:17:58;;;;;;;52.15;42.53;;;18.20;99.90;;;;;;5052761;28;20032;-76
2022/08/18 06:20:37;;;;;;;53.15;41.55;;;18.40;99.90;;;;;;5044251;28;20041;-76
2022/08/18 06:23:42;;;;;;;55.05;42.83;;;18.60;99.90;;;;;;5048709;28;20040;-72
2022/08/18 06:26:20;;;;;;;54.30;42.15;;;18.70;99.90;;;;;;5053267;28;20470;-76
2022/08/18 06:29:21;;;;;;;46.78;39.45;;;18.80;99.90;;;;;;5054544;28;20366;-76
2022/08/18 06:31:59;;;;;;;48.88;41.55;;;19.00;99.90;;;;;;5046314;28;20483;-77
2022/08/18 06:34:39;;;;;;;52.10;42.65;;;18.90;99.90;;;;;;5054231;28;20481;-76
2022/08/18 06:37:20;;;;;;;49.35;41.55;;;19.10;99.90;;;;;;5054449;28;20032;-74
2022/08/18 06:39:50;;;;;;;54.53;41.17;;;19.00;99.90;;;;;;5053162;28;20025;-76
2022/08/18 06:42:24;;;;;;;57.60;40.83;;;19.00;99.90;;;;;;5053465;28;20097;-76
2022/08/18 06:45:05;;;;;;;49.55;40.65;;;18.90;99.90;;;;;;5052347;28;20040;-76
2022/08/18 06:47:44;;;;;;;60.45;42.38;;;18.70;99.90;;;;;;5048406;28;20021;-76
2022/08/18 06:50:20;;;;;;;50.00;40.30;;;19.10;99.90;;;;;;5051127;28;20064;-75
2022/08/18 06:52:55;;;;;;;57.38;42.22;;;19.30;99.90;;;;;;5062234;28;20873;-74
2022/08/18 06:55:36;;;;;;;53.22;40.88;;;19.30;99.90;;;;;;5058615;28;20061;-76
2022/08/18 06:58:25;;;;;;;55.92;40.53;;;19.20;99.90;;;;;;5036169;28;20029;-75
2022/08/18 07:00:50;;;;;;;49.17;38.75;;;19.20;99.90;;;;;;5046592;28;20049;-74
2022/08/18 07:03:23;;;;;;;48.67;38.45;;;19.20;99.90;;;;;;5065585;28;20016;-73
2022/08/18 07:06:00;;;;;;;53.30;37.40;;;19.40;99.90;;;;;;5059508;28;20052;-74
2022/08/18 07:08:39;;;;;;;49.40;37.88;;;19.40;99.90;;;;;;5054552;28;20029;-73
2022/08/18 07:11:28;;;;;;;42.58;36.33;;;19.40;99.90;;;;;;5065973;28;20456;-69
2022/08/18 07:13:57;;;;;;;55.22;37.58;;;19.30;99.90;;;;;;5054122;28;20087;-69
2022/08/18 07:16:30;;;;;;;48.15;37.55;;;19.30;99.90;;;;;;5054921;28;20025;-74
2022/08/18 07:19:19;;;;;;;48.63;39.15;;;19.30;99.90;;;;;;5054613;28;20477;-70
2022/08/18 07:21:59;;;;;;;49.60;38.45;;;19.40;99.90;;;;;;5054793;28;20068;-67
2022/08/18 07:24:32;;;;;;;47.40;37.15;;;19.50;99.90;;;;;;5054466;28;20037;-74
2022/08/18 07:27:01;;;;;;;52.38;40.30;;;19.70;99.90;;;;;;5062055;28;20035;-68
2022/08/18 07:29:29;;;;;;;51.80;39.90;;;19.70;99.90;;;;;;5056927;28;20429;-72
2022/08/18 07:32:00;;;;;;;47.67;39.78;;;19.70;99.90;;;;;;5054437;28;20123;-69
2022/08/18 07:34:36;;;;;;;54.38;42.08;;;20.00;99.90;;;;;;5054185;28;20064;-69
2022/08/18 07:37:19;;;;;;;51.45;39.47;;;20.50;99.90;;;;;;5054613;28;20063;-74
2022/08/18 07:40:04;;;;;;;46.92;37.75;;;20.90;99.90;;;;;;5054284;28;20417;-69
2022/08/18 07:43:04;;;;;;;50.47;38.72;;;21.00;99.90;;;;;;5054190;28;20037;-73
2022/08/18 07:45:35;;;;;;;45.17;37.45;;;21.20;99.90;;;;;;5043599;28;20031;-74
2022/08/18 07:48:24;;;;;;;46.75;37.28;;;21.30;99.90;;;;;;5053596;28;20032;-70
2022/08/18 07:50:55;;;;;;;44.17;37.33;;;21.20;99.90;;;;;;5054094;28;20025;-70
2022/08/18 07:53:24;;;;;;;49.33;38.05;;;21.50;99.90;;;;;;5054140;28;20117;-72
2022/08/18 07:55:55;;;;;;;42.28;36.28;;;21.40;99.90;;;;;;5053879;28;20037;-72
2022/08/18 07:58:27;;;;;;;;;;;21.30;99.90;;;;;;5054159;28;20108;-73
2022/08/18 08:01:04;;;;;;;45.90;37.85;;;21.50;99.90;;;;;;5059226;28;19915;-68
2022/08/18 08:03:40;;;;;;;46.40;35.95;;;21.50;99.90;;;;;;5055932;28;20380;-72
2022/08/18 08:06:24;;;;;;;49.10;35.03;;;21.60;99.90;;;;;;5041189;28;20032;-71
2022/08/18 08:09:13;;;;;;;40.50;32.95;;;21.80;99.90;;;;;;5053457;28;20033;-73
2022/08/18 08:11:55;;;;;;;44.30;33.17;;;22.00;99.90;;;;;;5053527;28;20043;-72
2022/08/18 08:14:40;;;;;;;34.30;29.27;;;22.20;99.90;;;;;;5053508;28;20076;-74
2022/08/18 08:17:24;;;;;;;39.45;26.42;;;22.60;99.90;;;;;;5053730;28;20090;-72
2022/08/18 08:20:11;;;;;;;34.75;27.75;;;22.30;99.90;;;;;;5042024;28;20029;-71
2022/08/18 08:23:04;;;;;;;29.15;24.58;;;22.50;99.90;;;;;;5053508;28;20035;-73
2022/08/18 08:25:54;;;;;;;29.15;23.85;;;22.80;99.90;;;;;;5080111;23;20140;-70
2022/08/18 08:28:54;;;;;;;29.58;25.35;;;22.80;99.90;;;;;;5070073;28;20036;-71
2022/08/18 08:31:47;;;;;;;31.10;26.13;;;22.50;99.90;;;;;;5031263;28;20129;-70
2022/08/18 08:34:24;;;;;;;31.73;24.85;;;22.90;99.90;;;;;;5091700;28;20052;-72
2022/08/18 08:37:01;;;;;;;29.05;25.10;;;23.00;99.90;;;;;;5093956;28;20097;-73
2022/08/18 08:39:41;;;;;;;27.45;23.70;;;23.10;99.90;;;;;;5093231;28;20387;-70
2022/08/18 08:42:13;;;;;;;28.60;25.48;;;22.90;99.90;;;;;;5093522;28;20032;-73
2022/08/18 08:44:42;;;;;;;28.15;20.40;;;23.30;99.90;;;;;;5093237;28;20436;-73
2022/08/18 08:47:28;;;;;;;25.58;18.75;;;22.90;99.90;;;;;;5093322;28;20430;-74
2022/08/18 08:50:00;;;;;;;22.90;19.55;;;22.80;99.90;;;;;;5093445;28;20032;-73
2022/08/18 08:52:45;;;;;;;25.70;19.45;;;23.10;99.90;;;;;;5093204;28;20114;-71
2022/08/18 08:55:17;;;;;;;23.15;19.80;;;23.50;99.90;;;;;;5092967;28;20428;-70
2022/08/18 08:57:54;;;;;;;23.40;18.58;;;23.20;99.90;;;;;;5093384;28;20043;-71
2022/08/18 09:00:20;;;;;;;21.20;17.88;;;23.70;99.90;;;;;;5092987;28;20499;-73
2022/08/18 09:03:20;;;;;;;20.40;16.88;;;23.90;99.90;;;;;;5075259;28;20027;-70
2022/08/18 09:05:58;;;;;;;20.08;16.52;;;23.80;99.90;;;;;;5078866;28;20035;-72
2022/08/18 09:08:27;;;;;;;19.77;17.13;;;23.90;99.90;;;;;;5093191;28;20361;-74
2022/08/18 09:11:27;;;;;;;18.15;15.50;;;23.50;99.90;;;;;;5073214;28;20365;-70
2022/08/18 09:14:14;;;;;;;24.45;14.55;;;23.40;99.90;;;;;;5092645;28;20104;-71
2022/08/18 09:16:48;;;;;;;19.10;16.23;;;23.20;99.90;;;;;;5092873;28;20060;-70
2022/08/18 09:19:53;;;;;;;20.05;14.98;;;23.90;99.90;;;;;;5093023;28;20028;-72
2022/08/18 09:22:38;;;;;;;17.15;12.98;;;24.50;99.90;;;;;;5092666;28;20034;-72
2022/08/18 09:25:10;;;;;;;14.98;11.57;;;24.60;99.90;;;;;;5089270;28;20043;-73
2022/08/18 09:27:45;;;;;;;14.88;11.27;;;24.90;99.90;;;;;;5092768;28;20028;-73
2022/08/18 09:30:36;;;;;;;9.25;7.10;;;24.50;99.90;;;;;;5092963;28;20032;-70
2022/08/18 09:33:19;;;;;;;13.10;9.50;;;24.10;99.90;;;;;;5092852;28;20071;-71
2022/08/18 09:36:27;;;;;;;9.25;8.30;;;24.70;99.90;;;;;;5092884;28;20077;-71
2022/08/18 09:42:05;;;;;;;8.68;7.45;;;25.10;99.90;;;;;;5070351;28;20032;-71
2022/08/18 09:44:40;;;;;;;;;;;25.20;99.90;;;;;;5075240;28;20031;-72
2022/08/18 09:47:07;;;;;;;10.30;5.75;;;24.50;99.90;;;;;;5092626;28;20272;-72
2022/08/18 09:49:47;;;;;;;9.43;5.82;;;24.40;99.90;;;;;;5092631;28;20032;-70
2022/08/18 09:52:25;;;;;;;8.05;6.15;;;24.10;99.90;;;;;;5092274;28;20036;-71
2022/08/18 09:55:25;;;;;;;9.45;5.20;;;24.30;99.90;;;;;;5092793;28;20020;-72
2022/08/18 09:58:38;;;;;;;10.48;4.38;;;25.10;99.90;;;;;;5091297;28;20040;-70
2022/08/18 10:01:30;;;;;;;8.48;5.47;;;25.60;99.90;;;;;;5051406;28;20377;-71
2022/08/18 10:04:15;;;;;;;9.02;6.60;;;26.20;99.90;;;;;;5063896;28;20016;-71
2022/08/18 10:06:43;;;;;;;10.70;7.25;;;26.50;99.90;;;;;;5084138;28;20040;-71
2022/08/18 10:09:31;;;;;;;8.05;6.70;;;26.20;99.90;;;;;;5092776;28;20342;-72
2022/08/18 10:12:05;;;;;;;9.38;5.93;;;26.20;99.90;;;;;;5061252;28;20155;-70
2022/08/18 10:14:48;;;;;;;7.40;5.75;;;26.20;99.90;;;;;;5096028;28;20035;-70
2022/08/18 10:17:29;;;;;;;6.70;5.03;;;25.90;99.90;;;;;;5095896;28;20060;-70
2022/08/18 10:20:19;;;;;;;7.20;4.50;;;26.30;99.90;;;;;;5096426;28;20455;-71
2022/08/18 10:22:48;;;;;;;6.22;4.35;;;26.60;99.90;;;;;;5077242;28;20028;-70
2022/08/18 10:25:34;;;;;;;7.13;4.78;;;27.00;99.90;;;;;;5077892;28;20434;-71
2022/08/18 10:28:04;;;;;;;7.00;5.00;;;27.10;99.90;;;;;;5077592;28;20039;-70
2022/08/18 10:30:33;;;;;;;7.97;5.15;;;26.90;99.90;;;;;;5095987;28;20028;-71
2022/08/18 10:33:00;;;;;;;9.45;5.70;;;26.70;99.90;;;;;;5095732;28;20103;-71
2022/08/18 10:35:35;;;;;;;10.13;6.20;;;26.00;99.90;;;;;;5077729;28;20071;-70
2022/08/18 10:38:21;;;;;;;9.77;6.20;;;25.80;99.90;;;;;;5095584;28;20103;-71
2022/08/18 10:41:09;;;;;;;8.05;4.60;;;26.10;99.90;;;;;;5095280;28;20204;-73
2022/08/18 10:43:41;;;;;;;9.18;5.53;;;25.70;99.90;;;;;;5071268;28;20085;-71
2022/08/18 10:46:19;;;;;;;7.93;5.43;;;25.40;99.90;;;;;;5095492;28;20439;-70
2022/08/18 10:49:06;;;;;;;5.82;5.00;;;25.50;99.90;;;;;;5095349;28;20034;-73
2022/08/18 10:51:50;;;;;;;6.70;4.45;;;25.10;99.90;;;;;;5095037;28;20023;-72
2022/08/18 10:54:29;;;;;;;8.38;5.57;;;24.90;99.90;;;;;;5095281;28;20036;-70
2022/08/18 10:57:12;;;;;;;6.65;5.07;;;24.80;99.90;;;;;;5095451;28;20395;-70
2022/08/18 11:00:17;;;;;;;6.10;4.65;;;25.00;99.90;;;;;;5095245;28;20028;-73
2022/08/18 11:03:11;;;;;;;7.43;4.75;;;25.40;99.90;;;;;;5095227;28;20079;-69
2022/08/18 11:05:37;;;;;;;14.25;5.00;;;25.10;99.90;;;;;;5089913;28;20060;-71
2022/08/18 11:08:06;;;;;;;7.15;5.43;;;26.10;99.90;;;;;;5095270;28;20024;-70
2022/08/18 11:10:49;;;;;;;8.52;4.65;;;27.10;99.90;;;;;;5095275;28;20544;-71
2022/08/18 11:13:46;;;;;;;9.45;6.18;;;27.10;99.90;;;;;;5095386;28;20044;-72
2022/08/18 11:16:42;;;;;;;12.80;5.38;;;27.80;99.90;;;;;;5067937;28;20426;-70
2022/08/18 11:19:15;;;;;;;8.10;5.10;;;27.50;99.90;;;;;;5094620;28;20093;-71
2022/08/18 11:21:46;;;;;;;7.22;4.45;;;26.20;99.90;;;;;;5093878;28;20368;-70
2022/08/18 11:24:20;;;;;;;5.85;4.20;;;26.00;99.90;;;;;;5094524;28;20487;-75
2022/08/18 11:27:01;;;;;;;6.32;5.20;;;25.60;99.90;;;;;;5086595;28;20040;-73
2022/08/18 11:29:32;;;;;;;13.65;4.90;;;25.10;99.90;;;;;;5068417;28;20040;-71
2022/08/18 11:32:04;;;;;;;10.68;5.85;;;24.70;99.90;;;;;;5072714;28;20028;-69
2022/08/18 11:34:38;;;;;;;;;;;25.20;99.90;;;;;;5086189;28;20145;-74
2022/08/18 11:37:20;;;;;;;7.32;5.00;;;25.60;99.90;;;;;;5075747;28;19915;-71
2022/08/18 11:39:51;;;;;;;5.82;4.65;;;26.50;99.90;;;;;;5063018;28;20016;-72
2022/08/18 11:42:24;;;;;;;5.75;3.70;;;27.20;99.90;;;;;;5077535;28;20025;-74
2022/08/18 11:44:54;;;;;;;8.73;4.05;;;28.30;99.90;;;;;;5077202;28;20103;-69
2022/08/18 11:47:23;;;;;;;7.43;4.00;;;29.10;99.50;;;;;;5076530;28;20040;-71
2022/08/18 11:50:24;;;;;;;10.10;5.63;;;28.80;99.90;;;;;;5082379;28;20017;-71
2022/08/18 11:52:52;;;;;;;16.20;6.13;;;28.00;99.90;;;;;;5070057;28;20040;-71
2022/08/18 11:55:26;;;;;;;8.15;4.25;;;27.80;99.90;;;;;;5084030;28;20024;-70
2022/08/18 11:57:56;;;;;;;5.97;4.28;;;27.00;99.90;;;;;;5085562;28;20025;-72
2022/08/18 12:00:40;;;;;;;6.18;4.38;;;27.70;99.90;;;;;;5087232;28;20389;-71
2022/08/18 12:03:28;;;;;;;6.40;4.38;;;28.70;99.90;;;;;;5069534;28;20439;-69
2022/08/18 12:06:09;;;;;;;9.57;4.38;;;29.30;99.90;;;;;;5086163;28;20020;-71
2022/08/18 12:08:47;;;;;;;7.35;4.47;;;29.30;98.80;;;;;;5088783;28;20087;-70
2022/08/18 12:11:29;;;;;;;6.78;4.57;;;29.00;98.90;;;;;;5086770;28;20418;-70
2022/08/18 12:14:02;;;;;;;5.80;3.85;;;28.80;98.90;;;;;;5080303;28;20499;-70
2022/08/18 12:16:36;;;;;;;6.35;3.78;;;29.60;99.20;;;;;;5078975;28;20024;-73
2022/08/18 12:19:04;;;;;;;4.25;3.83;;;29.70;98.80;;;;;;5076841;28;20381;-70
2022/08/18 12:21:31;;;;;;;7.45;4.13;;;30.10;97.80;;;;;;5073288;28;20465;-71
2022/08/18 12:23:56;;;;;;;14.50;4.72;;;30.20;96.60;;;;;;5078351;28;20021;-70
2022/08/18 12:26:22;;;;;;;6.78;4.53;;;28.90;97.90;;;;;;5075637;28;20451;-70
2022/08/18 12:28:48;;;;;;;39.83;8.80;;;28.70;99.70;;;;;;5076215;28;20076;-69
2022/08/18 12:31:14;;;;;;;7.15;4.35;;;28.90;99.70;;;;;;5075844;28;20040;-73
2022/08/18 12:33:39;;;;;;;10.15;4.47;;;29.90;98.30;;;;;;5079497;28;20039;-69
2022/08/18 12:36:05;;;;;;;9.88;3.95;;;30.20;97.60;;;;;;5059506;28;20107;-74
2022/08/18 12:38:32;;;;;;;5.43;3.80;;;31.00;97.40;;;;;;5075449;28;20039;-71
2022/08/18 12:40:58;;;;;;;7.25;4.03;;;31.30;96.20;;;;;;5082269;28;20016;-72
2022/08/18 12:43:24;;;;;;;6.25;4.00;;;31.60;95.30;;;;;;5073558;28;20033;-76
2022/08/18 12:45:51;;;;;;;12.20;4.57;;;30.20;96.40;;;;;;5060872;28;20038;-75
2022/08/18 12:48:17;;;;;;;9.30;4.15;;;29.70;97.10;;;;;;5076158;28;20028;-75
2022/08/18 12:50:43;;;;;;;8.13;3.78;;;30.20;97.80;;;;;;5076009;28;20028;-72
2022/08/18 12:53:10;;;;;;;51.67;7.82;;;31.70;96.30;;;;;;5078551;28;20038;-70
2022/08/18 12:55:41;;;;;;;6.32;3.85;;;31.30;95.20;;;;;;5072901;28;20095;-73
2022/08/18 12:58:07;;;;;;;4.05;3.53;;;32.00;94.20;;;;;;5077238;28;20067;-75
2022/08/18 13:00:34;;;;;;;6.63;3.35;;;32.20;94.20;;;;;;5082529;28;20417;-76
2022/08/18 13:03:00;;;;;;;7.72;3.80;;;31.80;93.00;;;;;;5083212;28;20384;-71
2022/08/18 13:05:27;;;;;;;5.75;3.47;;;31.20;94.00;;;;;;5071679;28;20453;-71
2022/08/18 13:07:56;;;;;;;4.47;3.83;;;31.00;93.80;;;;;;5076586;28;20032;-73
2022/08/18 13:10:22;;;;;;;5.22;4.28;;;29.10;96.20;;;;;;5061763;28;20033;-74
2022/08/18 13:12:49;;;;;;;5.47;4.00;;;30.10;94.80;;;;;;5092230;28;20043;-73
2022/08/18 13:15:15;;;;;;;7.97;4.20;;;29.90;94.70;;;;;;5073737;28;20016;-72
2022/08/18 13:17:40;;;;;;;4.70;3.78;;;30.10;94.80;;;;;;5091988;28;20035;-70
2022/08/18 13:20:11;;;;;;;7.13;4.43;;;30.60;95.40;;;;;;5092118;28;20061;-69